VTD146 UBBQ-UGTB
Flight info
| Callsign | VTD146 |
|---|---|
| Flight time | 1h 8m |
| Altitude | 12000 |
| Route | EDATA DCT BAGVA DCT TISOT |
| Aircraft | DA42/L-SDEFGRY/C |
Departure
| Time | 2026-04-22 11:32 |
|---|---|
| Airport | Gabala International Airport (UBBQ) |
Arrival
| Time | 2026-04-22 12:40 |
|---|---|
| Airport | Tbilisi International Airport (UGTB) |
| Time | Latitude | Longitude | Altitude | Speed | Heading |
|---|---|---|---|---|---|
| 2026-04-22 11:07 | 40.82559 | 47.71164 | 1134 ft | 0 kts | 50° |
| 2026-04-22 11:20 | 40.82566 | 47.71176 | 1135 ft | 7 kts | 66° |
| 2026-04-22 11:20 | 40.82563 | 47.71254 | 1131 ft | 12 kts | 62° |
| 2026-04-22 11:20 | 40.82636 | 47.71366 | 1131 ft | 17 kts | 49° |
| 2026-04-22 11:20 | 40.82717 | 47.71485 | 1130 ft | 16 kts | 49° |
| 2026-04-22 11:21 | 40.82724 | 47.71580 | 1132 ft | 14 kts | 140° |
| 2026-04-22 11:21 | 40.82632 | 47.71685 | 1133 ft | 20 kts | 138° |
| 2026-04-22 11:21 | 40.82518 | 47.71815 | 1124 ft | 22 kts | 139° |
| 2026-04-22 11:21 | 40.82425 | 47.71922 | 1117 ft | 4 kts | 138° |
| 2026-04-22 11:22 | 40.82424 | 47.71922 | 1117 ft | 0 kts | 139° |
| 2026-04-22 11:24 | 40.82424 | 47.71923 | 1117 ft | 1 kts | 141° |
| 2026-04-22 11:24 | 40.82368 | 47.71986 | 1116 ft | 18 kts | 137° |
| 2026-04-22 11:24 | 40.82254 | 47.72102 | 1114 ft | 21 kts | 161° |
| 2026-04-22 11:24 | 40.82113 | 47.72146 | 1114 ft | 20 kts | 166° |
| 2026-04-22 11:25 | 40.81981 | 47.72187 | 1117 ft | 19 kts | 165° |
| 2026-04-22 11:25 | 40.81851 | 47.72226 | 1118 ft | 19 kts | 168° |
| 2026-04-22 11:25 | 40.81725 | 47.72265 | 1120 ft | 19 kts | 167° |
| 2026-04-22 11:25 | 40.81592 | 47.72305 | 1115 ft | 20 kts | 169° |
| 2026-04-22 11:26 | 40.81458 | 47.72345 | 1118 ft | 19 kts | 168° |
| 2026-04-22 11:26 | 40.81329 | 47.72384 | 1113 ft | 20 kts | 165° |
| 2026-04-22 11:26 | 40.81193 | 47.72426 | 1110 ft | 18 kts | 170° |
| 2026-04-22 11:26 | 40.81115 | 47.72450 | 1109 ft | 17 kts | 166° |
| 2026-04-22 11:27 | 40.80996 | 47.72484 | 1108 ft | 18 kts | 167° |
| 2026-04-22 11:27 | 40.80879 | 47.72524 | 1108 ft | 17 kts | 168° |
| 2026-04-22 11:27 | 40.80755 | 47.72552 | 1107 ft | 18 kts | 164° |
| 2026-04-22 11:27 | 40.80635 | 47.72594 | 1107 ft | 17 kts | 167° |
| 2026-04-22 11:28 | 40.80524 | 47.72629 | 1109 ft | 16 kts | 169° |
| 2026-04-22 11:28 | 40.80377 | 47.72673 | 1106 ft | 23 kts | 167° |
| 2026-04-22 11:28 | 40.80233 | 47.72717 | 1104 ft | 20 kts | 167° |
| 2026-04-22 11:28 | 40.80080 | 47.72760 | 1103 ft | 27 kts | 166° |
| 2026-04-22 11:29 | 40.79903 | 47.72815 | 1105 ft | 23 kts | 168° |
| 2026-04-22 11:29 | 40.79756 | 47.72859 | 1103 ft | 21 kts | 168° |
| 2026-04-22 11:29 | 40.79628 | 47.72899 | 1105 ft | 17 kts | 163° |
| 2026-04-22 11:29 | 40.79519 | 47.72937 | 1105 ft | 16 kts | 145° |
| 2026-04-22 11:30 | 40.79434 | 47.73028 | 1105 ft | 12 kts | 164° |
| 2026-04-22 11:30 | 40.79369 | 47.73017 | 1104 ft | 6 kts | 259° |
| 2026-04-22 11:30 | 40.79396 | 47.72957 | 1103 ft | 11 kts | 6° |
| 2026-04-22 11:30 | 40.79435 | 47.72956 | 1104 ft | 0 kts | 348° |
| 2026-04-22 11:31 | 40.79530 | 47.72925 | 1106 ft | 42 kts | 347° |
| 2026-04-22 11:31 | 40.79987 | 47.72790 | 1116 ft | 87 kts | 346° |
| 2026-04-22 11:31 | 40.80603 | 47.72639 | 1352 ft | 92 kts | 342° |
| 2026-04-22 11:32 | 40.81227 | 47.72472 | 1700 ft | 92 kts | 338° |
| 2026-04-22 11:32 | 40.81843 | 47.72248 | 1998 ft | 94 kts | 333° |
| 2026-04-22 11:32 | 40.82495 | 47.72065 | 2274 ft | 95 kts | 338° |
| 2026-04-22 11:32 | 40.83129 | 47.71868 | 2629 ft | 94 kts | 337° |
| 2026-04-22 11:33 | 40.83752 | 47.71688 | 3017 ft | 90 kts | 338° |
| 2026-04-22 11:33 | 40.84363 | 47.71497 | 3412 ft | 90 kts | 338° |
| 2026-04-22 11:33 | 40.84958 | 47.71310 | 3804 ft | 88 kts | 338° |
| 2026-04-22 11:33 | 40.85556 | 47.71117 | 4185 ft | 86 kts | 338° |
| 2026-04-22 11:34 | 40.86125 | 47.70930 | 4550 ft | 86 kts | 337° |
| 2026-04-22 11:34 | 40.86710 | 47.70743 | 4920 ft | 86 kts | 337° |
| 2026-04-22 11:34 | 40.87290 | 47.70562 | 5258 ft | 85 kts | 337° |
| 2026-04-22 11:34 | 40.87865 | 47.70380 | 5547 ft | 85 kts | 338° |
| 2026-04-22 11:35 | 40.88438 | 47.70196 | 5876 ft | 84 kts | 338° |
| 2026-04-22 11:35 | 40.89012 | 47.70013 | 6167 ft | 85 kts | 338° |
| 2026-04-22 11:35 | 40.89590 | 47.69826 | 6428 ft | 86 kts | 338° |
| 2026-04-22 11:35 | 40.90170 | 47.69642 | 6692 ft | 86 kts | 338° |
| 2026-04-22 11:36 | 40.90734 | 47.69418 | 6952 ft | 84 kts | 327° |
| 2026-04-22 11:36 | 40.91110 | 47.68878 | 7232 ft | 81 kts | 288° |
| 2026-04-22 11:36 | 40.90972 | 47.68138 | 7552 ft | 94 kts | 242° |
| 2026-04-22 11:36 | 40.90335 | 47.67739 | 7881 ft | 114 kts | 197° |
| 2026-04-22 11:37 | 40.89513 | 47.67894 | 8193 ft | 127 kts | 168° |
| 2026-04-22 11:37 | 40.88725 | 47.68457 | 8529 ft | 129 kts | 162° |
| 2026-04-22 11:37 | 40.87904 | 47.68908 | 8858 ft | 128 kts | 171° |
| 2026-04-22 11:37 | 40.87071 | 47.69329 | 9177 ft | 129 kts | 171° |
| 2026-04-22 11:38 | 40.86236 | 47.69755 | 9499 ft | 129 kts | 171° |
| 2026-04-22 11:38 | 40.85398 | 47.70185 | 9801 ft | 129 kts | 171° |
| 2026-04-22 11:38 | 40.83764 | 47.71278 | 10368 ft | 133 kts | 160° |
| 2026-04-22 11:39 | 40.82949 | 47.71804 | 10651 ft | 125 kts | 183° |
| 2026-04-22 11:39 | 40.82187 | 47.71657 | 10937 ft | 102 kts | 228° |
| 2026-04-22 11:39 | 40.81798 | 47.70990 | 11223 ft | 89 kts | 258° |
| 2026-04-22 11:39 | 40.81560 | 47.70223 | 11490 ft | 91 kts | 259° |
| 2026-04-22 11:40 | 40.81333 | 47.69442 | 11774 ft | 91 kts | 259° |
| 2026-04-22 11:40 | 40.81114 | 47.68656 | 12065 ft | 91 kts | 259° |
| 2026-04-22 11:40 | 40.80901 | 47.67872 | 12357 ft | 92 kts | 259° |
| 2026-04-22 11:40 | 40.80691 | 47.67072 | 12651 ft | 92 kts | 259° |
| 2026-04-22 11:41 | 40.80485 | 47.66267 | 12949 ft | 93 kts | 259° |
| 2026-04-22 11:41 | 40.80282 | 47.65455 | 13249 ft | 94 kts | 259° |
| 2026-04-22 11:41 | 40.80083 | 47.64637 | 13554 ft | 94 kts | 259° |
| 2026-04-22 11:41 | 40.79862 | 47.63824 | 13853 ft | 97 kts | 250° |
| 2026-04-22 11:42 | 40.79521 | 47.62972 | 13922 ft | 116 kts | 250° |
| 2026-04-22 11:42 | 40.79133 | 47.61933 | 13925 ft | 135 kts | 249° |
| 2026-04-22 11:42 | 40.78659 | 47.60777 | 13921 ft | 149 kts | 247° |
| 2026-04-22 11:42 | 40.78142 | 47.59561 | 13913 ft | 153 kts | 246° |
| 2026-04-22 11:43 | 40.77619 | 47.58336 | 13908 ft | 154 kts | 246° |
| 2026-04-22 11:43 | 40.77093 | 47.57093 | 13920 ft | 156 kts | 246° |
| 2026-04-22 11:43 | 40.76560 | 47.55832 | 13914 ft | 158 kts | 246° |
| 2026-04-22 11:43 | 40.76023 | 47.54558 | 13902 ft | 159 kts | 246° |
| 2026-04-22 11:44 | 40.75486 | 47.53285 | 13915 ft | 159 kts | 246° |
| 2026-04-22 11:44 | 40.74947 | 47.52009 | 13906 ft | 159 kts | 246° |
| 2026-04-22 11:44 | 40.74415 | 47.50747 | 13911 ft | 160 kts | 246° |
| 2026-04-22 11:44 | 40.73865 | 47.49446 | 13906 ft | 161 kts | 246° |
| 2026-04-22 11:45 | 40.73321 | 47.48156 | 13908 ft | 161 kts | 246° |
| 2026-04-22 11:45 | 40.72784 | 47.46884 | 13906 ft | 161 kts | 246° |
| 2026-04-22 11:45 | 40.72239 | 47.45596 | 13893 ft | 160 kts | 246° |
| 2026-04-22 11:45 | 40.71697 | 47.44313 | 13909 ft | 160 kts | 246° |
| 2026-04-22 11:46 | 40.71154 | 47.43030 | 13905 ft | 160 kts | 246° |
| 2026-04-22 11:46 | 40.70612 | 47.41748 | 13905 ft | 160 kts | 246° |
| 2026-04-22 11:46 | 40.70070 | 47.40465 | 13906 ft | 160 kts | 246° |
| 2026-04-22 11:46 | 40.69527 | 47.39184 | 13904 ft | 160 kts | 246° |
| 2026-04-22 11:47 | 40.68983 | 47.37900 | 13903 ft | 160 kts | 246° |
| 2026-04-22 11:47 | 40.68439 | 47.36618 | 13906 ft | 160 kts | 246° |
| 2026-04-22 11:47 | 40.67896 | 47.35334 | 13904 ft | 160 kts | 246° |
| 2026-04-22 11:47 | 40.67353 | 47.34053 | 13904 ft | 160 kts | 246° |
| 2026-04-22 11:48 | 40.66810 | 47.32775 | 13904 ft | 160 kts | 246° |
| 2026-04-22 11:48 | 40.66267 | 47.31496 | 13907 ft | 160 kts | 246° |
| 2026-04-22 11:48 | 40.65724 | 47.30218 | 13907 ft | 160 kts | 246° |
| 2026-04-22 11:48 | 40.65181 | 47.28941 | 13901 ft | 160 kts | 246° |
| 2026-04-22 11:49 | 40.64638 | 47.27663 | 13902 ft | 160 kts | 246° |
| 2026-04-22 11:49 | 40.64101 | 47.26400 | 13906 ft | 160 kts | 246° |
| 2026-04-22 11:49 | 40.63558 | 47.25124 | 13906 ft | 160 kts | 246° |
| 2026-04-22 11:49 | 40.63016 | 47.23851 | 13905 ft | 159 kts | 246° |
| 2026-04-22 11:50 | 40.62475 | 47.22578 | 13908 ft | 160 kts | 246° |
| 2026-04-22 11:50 | 40.61932 | 47.21302 | 13905 ft | 160 kts | 246° |
| 2026-04-22 11:50 | 40.61464 | 47.19984 | 13899 ft | 158 kts | 256° |
| 2026-04-22 11:50 | 40.61295 | 47.18574 | 13908 ft | 156 kts | 271° |
| 2026-04-22 11:51 | 40.61439 | 47.17170 | 13907 ft | 155 kts | 285° |
| 2026-04-22 11:51 | 40.61885 | 47.15875 | 13916 ft | 156 kts | 300° |
| 2026-04-22 11:51 | 40.62478 | 47.14674 | 13912 ft | 157 kts | 300° |
| 2026-04-22 11:51 | 40.63073 | 47.13474 | 13911 ft | 157 kts | 300° |
| 2026-04-22 11:52 | 40.63668 | 47.12273 | 13919 ft | 157 kts | 300° |
| 2026-04-22 11:52 | 40.64261 | 47.11071 | 13919 ft | 157 kts | 301° |
| 2026-04-22 11:52 | 40.64857 | 47.09869 | 13912 ft | 157 kts | 300° |
| 2026-04-22 11:52 | 40.65454 | 47.08661 | 13916 ft | 157 kts | 300° |
| 2026-04-22 11:53 | 40.66049 | 47.07456 | 13911 ft | 157 kts | 300° |
| 2026-04-22 11:53 | 40.66643 | 47.06251 | 13911 ft | 156 kts | 300° |
| 2026-04-22 11:53 | 40.67237 | 47.05048 | 13915 ft | 157 kts | 301° |
| 2026-04-22 11:53 | 40.67832 | 47.03843 | 13912 ft | 157 kts | 300° |
| 2026-04-22 11:54 | 40.68427 | 47.02635 | 13911 ft | 157 kts | 300° |
| 2026-04-22 11:54 | 40.69023 | 47.01426 | 13916 ft | 158 kts | 300° |
| 2026-04-22 11:54 | 40.69611 | 47.00233 | 13909 ft | 157 kts | 301° |
| 2026-04-22 11:54 | 40.70209 | 46.99019 | 13909 ft | 157 kts | 300° |
| 2026-04-22 11:55 | 40.70803 | 46.97814 | 13910 ft | 157 kts | 300° |
| 2026-04-22 11:55 | 40.71397 | 46.96608 | 13916 ft | 157 kts | 300° |
| 2026-04-22 11:55 | 40.71991 | 46.95401 | 13914 ft | 157 kts | 300° |
| 2026-04-22 11:55 | 40.72581 | 46.94197 | 13908 ft | 157 kts | 300° |
| 2026-04-22 11:56 | 40.73173 | 46.92994 | 13907 ft | 156 kts | 300° |
| 2026-04-22 11:56 | 40.73762 | 46.91793 | 13912 ft | 156 kts | 300° |
| 2026-04-22 11:56 | 40.74351 | 46.90595 | 13911 ft | 156 kts | 300° |
| 2026-04-22 11:56 | 40.74939 | 46.89399 | 13912 ft | 155 kts | 300° |
| 2026-04-22 11:57 | 40.75525 | 46.88205 | 13909 ft | 155 kts | 300° |
| 2026-04-22 11:57 | 40.76113 | 46.87007 | 13901 ft | 155 kts | 300° |
| 2026-04-22 11:57 | 40.76699 | 46.85812 | 13906 ft | 155 kts | 300° |
| 2026-04-22 11:57 | 40.77283 | 46.84620 | 13903 ft | 155 kts | 300° |
| 2026-04-22 11:58 | 40.77868 | 46.83426 | 13903 ft | 155 kts | 300° |
| 2026-04-22 11:58 | 40.78451 | 46.82236 | 13912 ft | 154 kts | 300° |
| 2026-04-22 11:58 | 40.79034 | 46.81047 | 13913 ft | 154 kts | 300° |
| 2026-04-22 11:58 | 40.79607 | 46.79875 | 13917 ft | 154 kts | 300° |
| 2026-04-22 11:59 | 40.80190 | 46.78684 | 13911 ft | 154 kts | 300° |
| 2026-04-22 11:59 | 40.80770 | 46.77500 | 13919 ft | 154 kts | 300° |
| 2026-04-22 11:59 | 40.81350 | 46.76312 | 13911 ft | 154 kts | 300° |
| 2026-04-22 11:59 | 40.81934 | 46.75117 | 13913 ft | 154 kts | 300° |
| 2026-04-22 12:00 | 40.82515 | 46.73927 | 13911 ft | 154 kts | 300° |
| 2026-04-22 12:00 | 40.83096 | 46.72738 | 13911 ft | 154 kts | 300° |
| 2026-04-22 12:00 | 40.83674 | 46.71553 | 13918 ft | 153 kts | 300° |
| 2026-04-22 12:00 | 40.84254 | 46.70364 | 13918 ft | 154 kts | 300° |
| 2026-04-22 12:01 | 40.84833 | 46.69179 | 13911 ft | 154 kts | 300° |
| 2026-04-22 12:01 | 40.85415 | 46.67986 | 13916 ft | 155 kts | 300° |
| 2026-04-22 12:01 | 40.85997 | 46.66790 | 13920 ft | 155 kts | 300° |
| 2026-04-22 12:01 | 40.86581 | 46.65592 | 13912 ft | 155 kts | 300° |
| 2026-04-22 12:02 | 40.87164 | 46.64397 | 13921 ft | 154 kts | 300° |
| 2026-04-22 12:02 | 40.87744 | 46.63203 | 13915 ft | 154 kts | 300° |
| 2026-04-22 12:02 | 40.88319 | 46.62023 | 13923 ft | 155 kts | 300° |
| 2026-04-22 12:02 | 40.88899 | 46.60830 | 13919 ft | 154 kts | 300° |
| 2026-04-22 12:03 | 40.89479 | 46.59637 | 13923 ft | 154 kts | 300° |
| 2026-04-22 12:03 | 40.90059 | 46.58445 | 13917 ft | 154 kts | 300° |
| 2026-04-22 12:03 | 40.90638 | 46.57253 | 13913 ft | 154 kts | 300° |
| 2026-04-22 12:03 | 40.91220 | 46.56053 | 13919 ft | 155 kts | 300° |
| 2026-04-22 12:04 | 40.91803 | 46.54852 | 13922 ft | 156 kts | 300° |
| 2026-04-22 12:04 | 40.92388 | 46.53650 | 13917 ft | 155 kts | 300° |
| 2026-04-22 12:04 | 40.92969 | 46.52452 | 13916 ft | 155 kts | 300° |
| 2026-04-22 12:04 | 40.93549 | 46.51255 | 13922 ft | 154 kts | 300° |
| 2026-04-22 12:05 | 40.94128 | 46.50060 | 13925 ft | 154 kts | 300° |
| 2026-04-22 12:05 | 40.94705 | 46.48868 | 13917 ft | 154 kts | 300° |
| 2026-04-22 12:05 | 40.95283 | 46.47676 | 13929 ft | 154 kts | 299° |
| 2026-04-22 12:05 | 40.95862 | 46.46481 | 13919 ft | 154 kts | 300° |
| 2026-04-22 12:06 | 40.96440 | 46.45287 | 13921 ft | 154 kts | 299° |
| 2026-04-22 12:06 | 40.97018 | 46.44091 | 13920 ft | 154 kts | 299° |
| 2026-04-22 12:06 | 40.97589 | 46.42912 | 13922 ft | 154 kts | 299° |
| 2026-04-22 12:06 | 40.98167 | 46.41716 | 13923 ft | 154 kts | 299° |
| 2026-04-22 12:07 | 40.98747 | 46.40516 | 13928 ft | 154 kts | 299° |
| 2026-04-22 12:07 | 40.99326 | 46.39318 | 13925 ft | 154 kts | 299° |
| 2026-04-22 12:07 | 40.99902 | 46.38125 | 13928 ft | 154 kts | 299° |
| 2026-04-22 12:07 | 41.00480 | 46.36926 | 13932 ft | 154 kts | 299° |
| 2026-04-22 12:08 | 41.01059 | 46.35727 | 13922 ft | 154 kts | 299° |
| 2026-04-22 12:08 | 41.01634 | 46.34534 | 13935 ft | 154 kts | 299° |
| 2026-04-22 12:08 | 41.02203 | 46.33355 | 13930 ft | 154 kts | 299° |
| 2026-04-22 12:08 | 41.02779 | 46.32159 | 13932 ft | 154 kts | 299° |
| 2026-04-22 12:09 | 41.03356 | 46.30962 | 13933 ft | 154 kts | 299° |
| 2026-04-22 12:09 | 41.03924 | 46.29756 | 13922 ft | 154 kts | 295° |
| 2026-04-22 12:09 | 41.04289 | 46.28440 | 13928 ft | 152 kts | 282° |
| 2026-04-22 12:09 | 41.04518 | 46.27075 | 13925 ft | 152 kts | 282° |
| 2026-04-22 12:10 | 41.04747 | 46.25708 | 13931 ft | 152 kts | 282° |
| 2026-04-22 12:10 | 41.04976 | 46.24341 | 13926 ft | 152 kts | 282° |
| 2026-04-22 12:10 | 41.05204 | 46.22979 | 13932 ft | 152 kts | 282° |
| 2026-04-22 12:10 | 41.05432 | 46.21613 | 13929 ft | 152 kts | 282° |
| 2026-04-22 12:11 | 41.05660 | 46.20245 | 13931 ft | 152 kts | 282° |
| 2026-04-22 12:11 | 41.05887 | 46.18881 | 13930 ft | 152 kts | 282° |
| 2026-04-22 12:11 | 41.06115 | 46.17512 | 13928 ft | 152 kts | 281° |
| 2026-04-22 12:11 | 41.06343 | 46.16145 | 13926 ft | 152 kts | 281° |
| 2026-04-22 12:12 | 41.06571 | 46.14777 | 13931 ft | 152 kts | 281° |
| 2026-04-22 12:12 | 41.06798 | 46.13410 | 13930 ft | 152 kts | 281° |
| 2026-04-22 12:12 | 41.07023 | 46.12056 | 13929 ft | 152 kts | 281° |
| 2026-04-22 12:12 | 41.07250 | 46.10687 | 13923 ft | 152 kts | 281° |
| 2026-04-22 12:13 | 41.07478 | 46.09314 | 13928 ft | 152 kts | 281° |
| 2026-04-22 12:13 | 41.07705 | 46.07943 | 13929 ft | 152 kts | 281° |
| 2026-04-22 12:13 | 41.07932 | 46.06571 | 13928 ft | 152 kts | 281° |
| 2026-04-22 12:13 | 41.08159 | 46.05200 | 13917 ft | 152 kts | 281° |
| 2026-04-22 12:14 | 41.08386 | 46.03829 | 13921 ft | 152 kts | 281° |
| 2026-04-22 12:14 | 41.08612 | 46.02459 | 13924 ft | 152 kts | 281° |
| 2026-04-22 12:14 | 41.08837 | 46.01090 | 13922 ft | 152 kts | 281° |
| 2026-04-22 12:14 | 41.09063 | 45.99720 | 13916 ft | 152 kts | 281° |
| 2026-04-22 12:15 | 41.09212 | 45.98815 | 13918 ft | 152 kts | 281° |
| 2026-04-22 12:15 | 41.09438 | 45.97448 | 13917 ft | 152 kts | 281° |
| 2026-04-22 12:15 | 41.09663 | 45.96081 | 13920 ft | 152 kts | 281° |
| 2026-04-22 12:15 | 41.09889 | 45.94710 | 13919 ft | 153 kts | 281° |
| 2026-04-22 12:16 | 41.10115 | 45.93332 | 13912 ft | 153 kts | 281° |
| 2026-04-22 12:16 | 41.10342 | 45.91953 | 13920 ft | 153 kts | 281° |
| 2026-04-22 12:16 | 41.10568 | 45.90573 | 13919 ft | 153 kts | 281° |
| 2026-04-22 12:16 | 41.10794 | 45.89194 | 13918 ft | 153 kts | 281° |
| 2026-04-22 12:17 | 41.11020 | 45.87815 | 13919 ft | 153 kts | 281° |
| 2026-04-22 12:17 | 41.11246 | 45.86433 | 13917 ft | 153 kts | 281° |
| 2026-04-22 12:17 | 41.11472 | 45.85052 | 13917 ft | 153 kts | 281° |
| 2026-04-22 12:17 | 41.11698 | 45.83667 | 13912 ft | 154 kts | 281° |
| 2026-04-22 12:18 | 41.12140 | 45.82370 | 13921 ft | 156 kts | 298° |
| 2026-04-22 12:18 | 41.12715 | 45.81140 | 13917 ft | 157 kts | 297° |
| 2026-04-22 12:18 | 41.13281 | 45.79902 | 13909 ft | 157 kts | 297° |
| 2026-04-22 12:18 | 41.13842 | 45.78660 | 13918 ft | 157 kts | 297° |
| 2026-04-22 12:19 | 41.14402 | 45.77415 | 13918 ft | 157 kts | 297° |
| 2026-04-22 12:19 | 41.14964 | 45.76166 | 13916 ft | 158 kts | 297° |
| 2026-04-22 12:19 | 41.15525 | 45.74918 | 13915 ft | 158 kts | 297° |
| 2026-04-22 12:19 | 41.16080 | 45.73683 | 13913 ft | 158 kts | 297° |
| 2026-04-22 12:20 | 41.16641 | 45.72431 | 13912 ft | 158 kts | 297° |
| 2026-04-22 12:20 | 41.17205 | 45.71175 | 13914 ft | 158 kts | 297° |
| 2026-04-22 12:20 | 41.17770 | 45.69917 | 13918 ft | 159 kts | 297° |
| 2026-04-22 12:20 | 41.18335 | 45.68656 | 13905 ft | 159 kts | 296° |
| 2026-04-22 12:21 | 41.18899 | 45.67397 | 13912 ft | 159 kts | 297° |
| 2026-04-22 12:21 | 41.19463 | 45.66139 | 13911 ft | 158 kts | 297° |
| 2026-04-22 12:21 | 41.20027 | 45.64881 | 13913 ft | 158 kts | 297° |
| 2026-04-22 12:21 | 41.20591 | 45.63622 | 13844 ft | 160 kts | 297° |
| 2026-04-22 12:22 | 41.21166 | 45.62340 | 13651 ft | 162 kts | 297° |
| 2026-04-22 12:22 | 41.21745 | 45.61048 | 13454 ft | 163 kts | 297° |
| 2026-04-22 12:22 | 41.22324 | 45.59752 | 13256 ft | 163 kts | 297° |
| 2026-04-22 12:22 | 41.22902 | 45.58459 | 13059 ft | 163 kts | 296° |
| 2026-04-22 12:23 | 41.23479 | 45.57164 | 12868 ft | 162 kts | 296° |
| 2026-04-22 12:23 | 41.24046 | 45.55897 | 12755 ft | 159 kts | 296° |
| 2026-04-22 12:23 | 41.24611 | 45.54631 | 12566 ft | 160 kts | 296° |
| 2026-04-22 12:23 | 41.25178 | 45.53358 | 12382 ft | 161 kts | 296° |
| 2026-04-22 12:24 | 41.25743 | 45.52093 | 12196 ft | 161 kts | 296° |
| 2026-04-22 12:24 | 41.26317 | 45.50807 | 11997 ft | 161 kts | 296° |
| 2026-04-22 12:24 | 41.26885 | 45.49531 | 11808 ft | 160 kts | 296° |
| 2026-04-22 12:24 | 41.27454 | 45.48254 | 11614 ft | 161 kts | 296° |
| 2026-04-22 12:25 | 41.28024 | 45.46972 | 11421 ft | 161 kts | 297° |
| 2026-04-22 12:25 | 41.28597 | 45.45690 | 11223 ft | 161 kts | 297° |
| 2026-04-22 12:25 | 41.29166 | 45.44408 | 11032 ft | 161 kts | 297° |
| 2026-04-22 12:25 | 41.29736 | 45.43124 | 10844 ft | 161 kts | 296° |
| 2026-04-22 12:26 | 41.30308 | 45.41836 | 10648 ft | 161 kts | 297° |
| 2026-04-22 12:26 | 41.30878 | 45.40557 | 10463 ft | 160 kts | 297° |
| 2026-04-22 12:26 | 41.31443 | 45.39283 | 10267 ft | 159 kts | 297° |
| 2026-04-22 12:26 | 41.32005 | 45.38018 | 10076 ft | 159 kts | 297° |
| 2026-04-22 12:27 | 41.32565 | 45.36755 | 9892 ft | 158 kts | 297° |
| 2026-04-22 12:27 | 41.33125 | 45.35498 | 9694 ft | 157 kts | 297° |
| 2026-04-22 12:27 | 41.33676 | 45.34252 | 9508 ft | 156 kts | 297° |
| 2026-04-22 12:27 | 41.34225 | 45.33011 | 9332 ft | 155 kts | 297° |
| 2026-04-22 12:28 | 41.34773 | 45.31775 | 9173 ft | 155 kts | 297° |
| 2026-04-22 12:28 | 41.35317 | 45.30549 | 8993 ft | 157 kts | 297° |
| 2026-04-22 12:28 | 41.35874 | 45.29290 | 8798 ft | 159 kts | 297° |
| 2026-04-22 12:28 | 41.36440 | 45.28008 | 8579 ft | 161 kts | 297° |
| 2026-04-22 12:29 | 41.37008 | 45.26725 | 8407 ft | 161 kts | 297° |
| 2026-04-22 12:29 | 41.37574 | 45.25445 | 8226 ft | 161 kts | 297° |
| 2026-04-22 12:29 | 41.38142 | 45.24163 | 8046 ft | 160 kts | 298° |
| 2026-04-22 12:29 | 41.38710 | 45.22877 | 7858 ft | 161 kts | 298° |
| 2026-04-22 12:30 | 41.39841 | 45.20314 | 7506 ft | 160 kts | 298° |
| 2026-04-22 12:30 | 41.40411 | 45.19025 | 7319 ft | 162 kts | 298° |
| 2026-04-22 12:30 | 41.40989 | 45.17720 | 7121 ft | 165 kts | 298° |
| 2026-04-22 12:31 | 41.41569 | 45.16397 | 6925 ft | 165 kts | 298° |
| 2026-04-22 12:31 | 41.42147 | 45.15080 | 6748 ft | 165 kts | 299° |
| 2026-04-22 12:31 | 41.42728 | 45.13762 | 6559 ft | 165 kts | 299° |
| 2026-04-22 12:31 | 41.43311 | 45.12446 | 6385 ft | 166 kts | 300° |
| 2026-04-22 12:32 | 41.43899 | 45.11105 | 6147 ft | 170 kts | 298° |
| 2026-04-22 12:32 | 41.45505 | 45.08869 | 5751 ft | 173 kts | 334° |
| 2026-04-22 12:32 | 41.46666 | 45.08523 | 5544 ft | 176 kts | 358° |
| 2026-04-22 12:33 | 41.47857 | 45.08838 | 5340 ft | 176 kts | 22° |
| 2026-04-22 12:33 | 41.48851 | 45.09773 | 5137 ft | 175 kts | 45° |
| 2026-04-22 12:33 | 41.49685 | 45.10937 | 4928 ft | 173 kts | 46° |
| 2026-04-22 12:33 | 41.50515 | 45.12096 | 4714 ft | 173 kts | 46° |
| 2026-04-22 12:34 | 41.51469 | 45.13029 | 4523 ft | 171 kts | 19° |
| 2026-04-22 12:34 | 41.52612 | 45.13109 | 4444 ft | 162 kts | 343° |
| 2026-04-22 12:34 | 41.53495 | 45.12272 | 4405 ft | 155 kts | 312° |
| 2026-04-22 12:34 | 41.54223 | 45.11211 | 4308 ft | 155 kts | 313° |
| 2026-04-22 12:35 | 41.54984 | 45.10189 | 4219 ft | 155 kts | 315° |
| 2026-04-22 12:35 | 41.55759 | 45.09182 | 4113 ft | 155 kts | 316° |
| 2026-04-22 12:35 | 41.56505 | 45.08250 | 3952 ft | 140 kts | 315° |
| 2026-04-22 12:35 | 41.57164 | 45.07411 | 3859 ft | 121 kts | 315° |
| 2026-04-22 12:36 | 41.57747 | 45.06684 | 3759 ft | 105 kts | 316° |
| 2026-04-22 12:36 | 41.58271 | 45.06013 | 3612 ft | 105 kts | 314° |
| 2026-04-22 12:36 | 41.58783 | 45.05328 | 3461 ft | 104 kts | 313° |
| 2026-04-22 12:36 | 41.59295 | 45.04646 | 3354 ft | 104 kts | 315° |
| 2026-04-22 12:37 | 41.59811 | 45.03986 | 3237 ft | 103 kts | 316° |
| 2026-04-22 12:37 | 41.60342 | 45.03359 | 3102 ft | 101 kts | 316° |
| 2026-04-22 12:37 | 41.60871 | 45.02741 | 2991 ft | 101 kts | 316° |
| 2026-04-22 12:37 | 41.61391 | 45.02093 | 2853 ft | 103 kts | 315° |
| 2026-04-22 12:38 | 41.61913 | 45.01430 | 2706 ft | 103 kts | 314° |
| 2026-04-22 12:38 | 41.62442 | 45.00782 | 2541 ft | 103 kts | 310° |
| 2026-04-22 12:38 | 41.62940 | 45.00105 | 2427 ft | 100 kts | 311° |
| 2026-04-22 12:38 | 41.63438 | 44.99445 | 2310 ft | 102 kts | 314° |
| 2026-04-22 12:39 | 41.63967 | 44.98801 | 2144 ft | 103 kts | 310° |
| 2026-04-22 12:39 | 41.64985 | 44.97530 | 1828 ft | 97 kts | 309° |
| 2026-04-22 12:39 | 41.65466 | 44.96927 | 1673 ft | 93 kts | 312° |
| 2026-04-22 12:40 | 41.65937 | 44.96339 | 1534 ft | 91 kts | 314° |
| 2026-04-22 12:40 | 41.66350 | 44.95821 | 1522 ft | 64 kts | 316° |
| 2026-04-22 12:40 | 41.66577 | 44.95532 | 1519 ft | 32 kts | 315° |
| 2026-04-22 12:40 | 41.66716 | 44.95362 | 1519 ft | 25 kts | 316° |
| 2026-04-22 12:41 | 41.66836 | 44.95208 | 1520 ft | 21 kts | 315° |
| 2026-04-22 12:41 | 41.66920 | 44.95223 | 1521 ft | 15 kts | 44° |
| 2026-04-22 12:41 | 41.66962 | 44.95279 | 1521 ft | 0 kts | 42° |
| 2026-04-22 12:42 | 41.66978 | 44.95295 | 1521 ft | 8 kts | 38° |
| 2026-04-22 12:42 | 41.67039 | 44.95376 | 1521 ft | 16 kts | 44° |
| 2026-04-22 12:42 | 41.67129 | 44.95492 | 1521 ft | 17 kts | 43° |
| 2026-04-22 12:42 | 41.67219 | 44.95605 | 1521 ft | 17 kts | 46° |
| 2026-04-22 12:43 | 41.67282 | 44.95600 | 1521 ft | 13 kts | 318° |
| 2026-04-22 12:43 | 41.67345 | 44.95644 | 1521 ft | 9 kts | 46° |
| 2026-04-22 12:43 | 41.67386 | 44.95639 | 1521 ft | 9 kts | 314° |
| 2026-04-22 12:43 | 41.67400 | 44.95619 | 1521 ft | 0 kts | 313° |